sensor_id;sensor_type;location;lat;lon;timestamp;P1;durP1;ratioP1;P2;durP2;ratioP2
60430;SDS011;46285;45.122;20.726;2022-07-29T00:02:20;13.70;;;8.80;;
60430;SDS011;46285;45.122;20.726;2022-07-29T00:04:46;13.80;;;10.05;;
60430;SDS011;46285;45.122;20.726;2022-07-29T00:07:13;12.68;;;8.32;;
60430;SDS011;46285;45.122;20.726;2022-07-29T00:09:40;14.90;;;10.30;;
60430;SDS011;46285;45.122;20.726;2022-07-29T00:12:06;11.82;;;9.98;;
60430;SDS011;46285;45.122;20.726;2022-07-29T00:14:34;12.23;;;8.38;;
60430;SDS011;46285;45.122;20.726;2022-07-29T00:17:00;14.23;;;9.27;;
60430;SDS011;46285;45.122;20.726;2022-07-29T00:19:26;14.98;;;9.88;;
60430;SDS011;46285;45.122;20.726;2022-07-29T00:21:52;16.17;;;10.00;;
60430;SDS011;46285;45.122;20.726;2022-07-29T00:24:19;11.43;;;9.18;;
60430;SDS011;46285;45.122;20.726;2022-07-29T00:26:45;12.48;;;9.32;;
60430;SDS011;46285;45.122;20.726;2022-07-29T00:29:11;14.02;;;8.98;;
60430;SDS011;46285;45.122;20.726;2022-07-29T00:31:37;11.65;;;9.50;;
60430;SDS011;46285;45.122;20.726;2022-07-29T00:34:03;11.55;;;9.82;;
60430;SDS011;46285;45.122;20.726;2022-07-29T00:38:57;12.55;;;9.75;;
60430;SDS011;46285;45.122;20.726;2022-07-29T00:41:23;11.55;;;9.52;;
60430;SDS011;46285;45.122;20.726;2022-07-29T00:43:49;11.75;;;9.38;;
60430;SDS011;46285;45.122;20.726;2022-07-29T00:46:15;15.40;;;9.63;;
60430;SDS011;46285;45.122;20.726;2022-07-29T00:48:41;12.07;;;10.20;;
60430;SDS011;46285;45.122;20.726;2022-07-29T00:51:07;12.43;;;9.63;;
60430;SDS011;46285;45.122;20.726;2022-07-29T00:53:35;13.85;;;10.93;;
60430;SDS011;46285;45.122;20.726;2022-07-29T00:56:01;12.52;;;11.23;;
60430;SDS011;46285;45.122;20.726;2022-07-29T00:58:27;14.02;;;10.43;;
60430;SDS011;46285;45.122;20.726;2022-07-29T01:00:54;14.77;;;9.93;;
60430;SDS011;46285;45.122;20.726;2022-07-29T01:03:20;11.30;;;10.10;;
60430;SDS011;46285;45.122;20.726;2022-07-29T01:05:46;12.25;;;10.45;;
60430;SDS011;46285;45.122;20.726;2022-07-29T01:08:13;11.50;;;10.07;;
60430;SDS011;46285;45.122;20.726;2022-07-29T01:10:40;12.02;;;9.98;;
60430;SDS011;46285;45.122;20.726;2022-07-29T01:13:06;11.23;;;9.33;;
60430;SDS011;46285;45.122;20.726;2022-07-29T01:15:34;14.70;;;10.43;;
60430;SDS011;46285;45.122;20.726;2022-07-29T01:18:10;13.25;;;9.68;;
60430;SDS011;46285;45.122;20.726;2022-07-29T01:21:23;11.65;;;9.45;;
60430;SDS011;46285;45.122;20.726;2022-07-29T01:31:22;12.43;;;11.13;;
60430;SDS011;46285;45.122;20.726;2022-07-29T01:33:53;12.50;;;9.63;;
60430;SDS011;46285;45.122;20.726;2022-07-29T01:39:07;13.57;;;10.80;;
60430;SDS011;46285;45.122;20.726;2022-07-29T01:41:35;13.25;;;10.73;;
60430;SDS011;46285;45.122;20.726;2022-07-29T01:44:05;12.05;;;10.25;;
60430;SDS011;46285;45.122;20.726;2022-07-29T01:46:34;12.02;;;9.98;;
60430;SDS011;46285;45.122;20.726;2022-07-29T01:49:14;13.60;;;11.15;;
60430;SDS011;46285;45.122;20.726;2022-07-29T01:51:43;14.32;;;10.90;;
60430;SDS011;46285;45.122;20.726;2022-07-29T01:54:21;15.63;;;10.73;;
60430;SDS011;46285;45.122;20.726;2022-07-29T01:56:51;15.23;;;10.55;;
60430;SDS011;46285;45.122;20.726;2022-07-29T01:59:17;12.10;;;10.83;;
60430;SDS011;46285;45.122;20.726;2022-07-29T02:01:44;12.70;;;11.03;;
60430;SDS011;46285;45.122;20.726;2022-07-29T02:04:11;13.23;;;10.88;;
60430;SDS011;46285;45.122;20.726;2022-07-29T02:06:38;13.47;;;10.97;;
60430;SDS011;46285;45.122;20.726;2022-07-29T02:09:04;13.02;;;10.93;;
60430;SDS011;46285;45.122;20.726;2022-07-29T02:11:33;12.32;;;11.02;;
60430;SDS011;46285;45.122;20.726;2022-07-29T02:13:59;11.95;;;9.98;;
60430;SDS011;46285;45.122;20.726;2022-07-29T02:16:26;13.67;;;11.47;;
60430;SDS011;46285;45.122;20.726;2022-07-29T02:18:54;12.80;;;11.07;;
60430;SDS011;46285;45.122;20.726;2022-07-29T02:21:23;13.55;;;10.75;;
60430;SDS011;46285;45.122;20.726;2022-07-29T02:23:50;12.27;;;11.05;;
60430;SDS011;46285;45.122;20.726;2022-07-29T02:26:18;13.82;;;11.30;;
60430;SDS011;46285;45.122;20.726;2022-07-29T02:31:11;12.98;;;10.75;;
60430;SDS011;46285;45.122;20.726;2022-07-29T02:33:38;14.00;;;10.90;;
60430;SDS011;46285;45.122;20.726;2022-07-29T02:36:06;12.90;;;10.95;;
60430;SDS011;46285;45.122;20.726;2022-07-29T02:38:32;14.93;;;11.73;;
60430;SDS011;46285;45.122;20.726;2022-07-29T02:44:15;11.77;;;10.57;;
60430;SDS011;46285;45.122;20.726;2022-07-29T02:52:04;14.98;;;11.82;;
60430;SDS011;46285;45.122;20.726;2022-07-29T02:57:06;12.88;;;11.43;;
60430;SDS011;46285;45.122;20.726;2022-07-29T02:59:35;12.30;;;10.77;;
60430;SDS011;46285;45.122;20.726;2022-07-29T03:02:02;12.23;;;10.80;;
60430;SDS011;46285;45.122;20.726;2022-07-29T03:04:30;14.27;;;11.70;;
60430;SDS011;46285;45.122;20.726;2022-07-29T03:06:58;13.43;;;11.43;;
60430;SDS011;46285;45.122;20.726;2022-07-29T03:09:24;12.88;;;11.57;;
60430;SDS011;46285;45.122;20.726;2022-07-29T03:11:51;12.60;;;11.30;;
60430;SDS011;46285;45.122;20.726;2022-07-29T03:14:19;14.00;;;11.73;;
60430;SDS011;46285;45.122;20.726;2022-07-29T03:16:46;14.38;;;11.52;;
60430;SDS011;46285;45.122;20.726;2022-07-29T03:19:12;14.03;;;11.23;;
60430;SDS011;46285;45.122;20.726;2022-07-29T03:21:39;11.35;;;10.18;;
60430;SDS011;46285;45.122;20.726;2022-07-29T03:24:05;13.90;;;11.10;;
60430;SDS011;46285;45.122;20.726;2022-07-29T03:26:31;11.43;;;10.23;;
60430;SDS011;46285;45.122;20.726;2022-07-29T03:28:57;13.85;;;10.85;;
60430;SDS011;46285;45.122;20.726;2022-07-29T03:31:24;12.25;;;10.68;;
60430;SDS011;46285;45.122;20.726;2022-07-29T03:33:50;11.13;;;9.15;;
60430;SDS011;46285;45.122;20.726;2022-07-29T03:36:16;14.00;;;9.63;;
60430;SDS011;46285;45.122;20.726;2022-07-29T03:38:42;12.02;;;10.00;;
60430;SDS011;46285;45.122;20.726;2022-07-29T03:41:10;16.00;;;10.13;;
60430;SDS011;46285;45.122;20.726;2022-07-29T03:46:03;11.20;;;8.27;;
60430;SDS011;46285;45.122;20.726;2022-07-29T03:48:30;10.13;;;7.70;;
60430;SDS011;46285;45.122;20.726;2022-07-29T03:53:23;10.13;;;6.55;;
60430;SDS011;46285;45.122;20.726;2022-07-29T03:55:50;8.80;;;6.25;;
60430;SDS011;46285;45.122;20.726;2022-07-29T03:58:18;9.32;;;6.03;;
60430;SDS011;46285;45.122;20.726;2022-07-29T04:00:44;8.30;;;6.00;;
60430;SDS011;46285;45.122;20.726;2022-07-29T04:05:38;8.80;;;5.55;;
60430;SDS011;46285;45.122;20.726;2022-07-29T04:08:04;7.25;;;5.22;;
60430;SDS011;46285;45.122;20.726;2022-07-29T04:10:31;9.88;;;5.55;;
60430;SDS011;46285;45.122;20.726;2022-07-29T04:12:57;8.15;;;5.32;;
60430;SDS011;46285;45.122;20.726;2022-07-29T04:15:24;9.25;;;5.38;;
60430;SDS011;46285;45.122;20.726;2022-07-29T04:17:50;9.85;;;5.00;;
60430;SDS011;46285;45.122;20.726;2022-07-29T04:20:16;8.35;;;5.35;;
60430;SDS011;46285;45.122;20.726;2022-07-29T04:22:43;7.03;;;4.90;;
60430;SDS011;46285;45.122;20.726;2022-07-29T04:25:09;8.48;;;5.20;;
60430;SDS011;46285;45.122;20.726;2022-07-29T04:27:35;9.60;;;6.07;;
60430;SDS011;46285;45.122;20.726;2022-07-29T04:30:21;8.95;;;5.30;;
60430;SDS011;46285;45.122;20.726;2022-07-29T04:32:47;17.30;;;5.90;;
60430;SDS011;46285;45.122;20.726;2022-07-29T04:35:14;8.63;;;4.97;;
60430;SDS011;46285;45.122;20.726;2022-07-29T04:37:40;8.60;;;4.80;;
60430;SDS011;46285;45.122;20.726;2022-07-29T04:40:06;7.63;;;5.15;;
60430;SDS011;46285;45.122;20.726;2022-07-29T04:42:32;10.27;;;4.85;;
60430;SDS011;46285;45.122;20.726;2022-07-29T04:44:58;7.90;;;4.40;;
60430;SDS011;46285;45.122;20.726;2022-07-29T04:47:24;7.22;;;4.57;;
60430;SDS011;46285;45.122;20.726;2022-07-29T04:49:51;7.70;;;4.68;;
60430;SDS011;46285;45.122;20.726;2022-07-29T04:52:17;7.78;;;4.65;;
60430;SDS011;46285;45.122;20.726;2022-07-29T04:54:43;9.75;;;4.60;;
60430;SDS011;46285;45.122;20.726;2022-07-29T04:57:09;9.38;;;4.90;;
60430;SDS011;46285;45.122;20.726;2022-07-29T04:59:35;11.18;;;4.32;;
60430;SDS011;46285;45.122;20.726;2022-07-29T05:02:01;6.70;;;3.97;;
60430;SDS011;46285;45.122;20.726;2022-07-29T05:04:27;9.10;;;4.82;;
60430;SDS011;46285;45.122;20.726;2022-07-29T05:06:54;10.23;;;4.03;;
60430;SDS011;46285;45.122;20.726;2022-07-29T05:09:20;7.75;;;4.55;;
60430;SDS011;46285;45.122;20.726;2022-07-29T05:11:46;8.63;;;4.72;;
60430;SDS011;46285;45.122;20.726;2022-07-29T05:14:12;8.32;;;4.25;;
60430;SDS011;46285;45.122;20.726;2022-07-29T05:16:38;8.40;;;3.78;;
60430;SDS011;46285;45.122;20.726;2022-07-29T05:19:05;8.20;;;4.63;;
60430;SDS011;46285;45.122;20.726;2022-07-29T05:21:31;8.52;;;4.28;;
60430;SDS011;46285;45.122;20.726;2022-07-29T05:23:57;12.00;;;4.72;;
60430;SDS011;46285;45.122;20.726;2022-07-29T05:26:23;10.27;;;5.57;;
60430;SDS011;46285;45.122;20.726;2022-07-29T05:28:50;25.52;;;6.55;;
60430;SDS011;46285;45.122;20.726;2022-07-29T05:31:16;11.93;;;5.15;;
60430;SDS011;46285;45.122;20.726;2022-07-29T05:33:42;8.32;;;5.28;;
60430;SDS011;46285;45.122;20.726;2022-07-29T05:36:08;11.52;;;5.22;;
60430;SDS011;46285;45.122;20.726;2022-07-29T05:38:35;8.35;;;5.53;;
60430;SDS011;46285;45.122;20.726;2022-07-29T05:41:01;12.77;;;6.35;;
60430;SDS011;46285;45.122;20.726;2022-07-29T05:43:27;11.57;;;5.57;;
60430;SDS011;46285;45.122;20.726;2022-07-29T05:45:54;12.02;;;5.00;;
60430;SDS011;46285;45.122;20.726;2022-07-29T05:48:20;11.60;;;6.10;;
60430;SDS011;46285;45.122;20.726;2022-07-29T05:50:46;13.25;;;6.07;;
60430;SDS011;46285;45.122;20.726;2022-07-29T05:53:12;11.43;;;5.35;;
60430;SDS011;46285;45.122;20.726;2022-07-29T05:55:38;10.55;;;5.38;;
60430;SDS011;46285;45.122;20.726;2022-07-29T05:58:04;7.07;;;4.63;;
60430;SDS011;46285;45.122;20.726;2022-07-29T06:00:31;12.15;;;5.55;;
60430;SDS011;46285;45.122;20.726;2022-07-29T06:02:57;10.60;;;5.45;;
60430;SDS011;46285;45.122;20.726;2022-07-29T06:05:23;15.50;;;5.53;;
60430;SDS011;46285;45.122;20.726;2022-07-29T06:07:49;25.05;;;7.70;;
60430;SDS011;46285;45.122;20.726;2022-07-29T06:10:15;19.30;;;8.20;;
60430;SDS011;46285;45.122;20.726;2022-07-29T06:12:41;23.13;;;7.97;;
60430;SDS011;46285;45.122;20.726;2022-07-29T06:15:08;29.40;;;8.17;;
60430;SDS011;46285;45.122;20.726;2022-07-29T06:17:34;17.92;;;6.45;;
60430;SDS011;46285;45.122;20.726;2022-07-29T06:20:01;23.50;;;7.53;;
60430;SDS011;46285;45.122;20.726;2022-07-29T06:22:27;17.92;;;6.78;;
60430;SDS011;46285;45.122;20.726;2022-07-29T06:24:54;24.87;;;9.90;;
60430;SDS011;46285;45.122;20.726;2022-07-29T06:27:20;15.90;;;7.43;;
60430;SDS011;46285;45.122;20.726;2022-07-29T06:29:46;29.57;;;9.33;;
60430;SDS011;46285;45.122;20.726;2022-07-29T06:32:12;11.40;;;7.43;;
60430;SDS011;46285;45.122;20.726;2022-07-29T06:34:38;16.40;;;8.57;;
60430;SDS011;46285;45.122;20.726;2022-07-29T06:37:08;11.87;;;7.87;;
60430;SDS011;46285;45.122;20.726;2022-07-29T06:39:34;17.38;;;8.65;;
60430;SDS011;46285;45.122;20.726;2022-07-29T06:42:01;14.43;;;8.40;;
60430;SDS011;46285;45.122;20.726;2022-07-29T06:44:27;21.52;;;10.13;;
60430;SDS011;46285;45.122;20.726;2022-07-29T06:46:54;16.25;;;7.78;;
60430;SDS011;46285;45.122;20.726;2022-07-29T06:49:21;13.93;;;7.97;;
60430;SDS011;46285;45.122;20.726;2022-07-29T06:51:49;9.48;;;7.30;;
60430;SDS011;46285;45.122;20.726;2022-07-29T06:54:15;17.93;;;9.37;;
60430;SDS011;46285;45.122;20.726;2022-07-29T06:56:41;22.77;;;9.67;;
60430;SDS011;46285;45.122;20.726;2022-07-29T06:59:08;25.02;;;9.50;;
60430;SDS011;46285;45.122;20.726;2022-07-29T07:04:01;19.02;;;7.88;;
60430;SDS011;46285;45.122;20.726;2022-07-29T07:06:27;12.67;;;7.90;;
60430;SDS011;46285;45.122;20.726;2022-07-29T07:08:53;31.52;;;9.88;;
60430;SDS011;46285;45.122;20.726;2022-07-29T07:11:19;30.08;;;10.32;;
60430;SDS011;46285;45.122;20.726;2022-07-29T07:13:46;9.43;;;7.00;;
60430;SDS011;46285;45.122;20.726;2022-07-29T07:16:12;20.08;;;7.72;;
60430;SDS011;46285;45.122;20.726;2022-07-29T07:18:38;51.67;;;12.38;;
60430;SDS011;46285;45.122;20.726;2022-07-29T07:21:04;128.40;;;24.27;;
60430;SDS011;46285;45.122;20.726;2022-07-29T07:23:30;80.55;;;14.50;;
60430;SDS011;46285;45.122;20.726;2022-07-29T07:25:57;17.02;;;7.00;;
60430;SDS011;46285;45.122;20.726;2022-07-29T07:28:23;17.50;;;6.90;;
60430;SDS011;46285;45.122;20.726;2022-07-29T07:30:49;10.70;;;6.13;;
60430;SDS011;46285;45.122;20.726;2022-07-29T07:33:15;10.02;;;7.00;;
60430;SDS011;46285;45.122;20.726;2022-07-29T07:35:41;13.68;;;7.95;;
60430;SDS011;46285;45.122;20.726;2022-07-29T07:38:08;13.05;;;7.90;;
60430;SDS011;46285;45.122;20.726;2022-07-29T07:40:34;11.43;;;7.85;;
60430;SDS011;46285;45.122;20.726;2022-07-29T07:43:01;9.63;;;6.60;;
60430;SDS011;46285;45.122;20.726;2022-07-29T07:45:27;10.85;;;7.05;;
60430;SDS011;46285;45.122;20.726;2022-07-29T07:47:53;9.65;;;6.90;;
60430;SDS011;46285;45.122;20.726;2022-07-29T07:50:19;9.95;;;7.60;;
60430;SDS011;46285;45.122;20.726;2022-07-29T07:52:55;10.65;;;7.65;;
60430;SDS011;46285;45.122;20.726;2022-07-29T07:55:28;20.52;;;9.15;;
60430;SDS011;46285;45.122;20.726;2022-07-29T07:57:54;14.32;;;7.18;;
60430;SDS011;46285;45.122;20.726;2022-07-29T08:00:21;12.70;;;8.95;;
60430;SDS011;46285;45.122;20.726;2022-07-29T08:02:48;13.68;;;8.73;;
60430;SDS011;46285;45.122;20.726;2022-07-29T08:05:15;11.48;;;8.30;;
60430;SDS011;46285;45.122;20.726;2022-07-29T08:07:42;11.25;;;8.70;;
60430;SDS011;46285;45.122;20.726;2022-07-29T08:10:09;14.65;;;9.60;;
60430;SDS011;46285;45.122;20.726;2022-07-29T08:12:35;15.55;;;8.93;;
60430;SDS011;46285;45.122;20.726;2022-07-29T08:15:01;11.73;;;8.25;;
60430;SDS011;46285;45.122;20.726;2022-07-29T08:17:27;12.60;;;8.93;;
60430;SDS011;46285;45.122;20.726;2022-07-29T08:19:54;15.07;;;9.75;;
60430;SDS011;46285;45.122;20.726;2022-07-29T08:22:20;11.43;;;8.80;;
60430;SDS011;46285;45.122;20.726;2022-07-29T08:24:46;13.23;;;9.63;;
60430;SDS011;46285;45.122;20.726;2022-07-29T08:27:17;13.45;;;8.98;;
60430;SDS011;46285;45.122;20.726;2022-07-29T08:29:44;15.73;;;8.40;;
60430;SDS011;46285;45.122;20.726;2022-07-29T08:32:10;14.60;;;8.27;;
60430;SDS011;46285;45.122;20.726;2022-07-29T08:34:37;10.50;;;7.47;;
60430;SDS011;46285;45.122;20.726;2022-07-29T08:37:03;12.23;;;7.05;;
60430;SDS011;46285;45.122;20.726;2022-07-29T08:39:29;13.55;;;7.95;;
60430;SDS011;46285;45.122;20.726;2022-07-29T08:41:55;18.85;;;8.38;;
60430;SDS011;46285;45.122;20.726;2022-07-29T08:44:22;12.82;;;8.13;;
60430;SDS011;46285;45.122;20.726;2022-07-29T08:46:48;15.05;;;7.10;;
60430;SDS011;46285;45.122;20.726;2022-07-29T08:51:40;14.40;;;7.38;;
60430;SDS011;46285;45.122;20.726;2022-07-29T08:54:08;16.48;;;9.07;;
60430;SDS011;46285;45.122;20.726;2022-07-29T08:56:35;13.25;;;7.53;;
60430;SDS011;46285;45.122;20.726;2022-07-29T08:59:04;12.00;;;6.93;;
60430;SDS011;46285;45.122;20.726;2022-07-29T09:01:32;13.07;;;7.55;;
60430;SDS011;46285;45.122;20.726;2022-07-29T09:03:58;13.32;;;7.45;;
60430;SDS011;46285;45.122;20.726;2022-07-29T09:06:26;13.32;;;8.02;;
60430;SDS011;46285;45.122;20.726;2022-07-29T09:08:58;20.00;;;8.25;;
60430;SDS011;46285;45.122;20.726;2022-07-29T09:11:25;14.52;;;7.95;;
60430;SDS011;46285;45.122;20.726;2022-07-29T09:13:51;10.35;;;6.60;;
60430;SDS011;46285;45.122;20.726;2022-07-29T09:16:17;13.82;;;8.30;;
60430;SDS011;46285;45.122;20.726;2022-07-29T09:18:44;19.08;;;7.75;;
60430;SDS011;46285;45.122;20.726;2022-07-29T09:21:15;10.18;;;7.30;;
60430;SDS011;46285;45.122;20.726;2022-07-29T09:24:01;9.40;;;7.07;;
60430;SDS011;46285;45.122;20.726;2022-07-29T09:26:28;12.60;;;7.10;;
60430;SDS011;46285;45.122;20.726;2022-07-29T09:28:55;18.23;;;8.23;;
60430;SDS011;46285;45.122;20.726;2022-07-29T09:31:34;10.13;;;7.15;;
60430;SDS011;46285;45.122;20.726;2022-07-29T09:34:00;12.68;;;7.88;;
60430;SDS011;46285;45.122;20.726;2022-07-29T09:36:27;9.85;;;7.20;;
60430;SDS011;46285;45.122;20.726;2022-07-29T09:38:58;10.73;;;6.53;;
60430;SDS011;46285;45.122;20.726;2022-07-29T09:41:25;12.02;;;7.20;;
60430;SDS011;46285;45.122;20.726;2022-07-29T09:43:58;9.82;;;7.50;;
60430;SDS011;46285;45.122;20.726;2022-07-29T09:46:25;11.30;;;7.95;;
60430;SDS011;46285;45.122;20.726;2022-07-29T09:51:18;14.68;;;7.97;;
60430;SDS011;46285;45.122;20.726;2022-07-29T09:56:10;12.25;;;8.07;;
60430;SDS011;46285;45.122;20.726;2022-07-29T09:58:37;12.82;;;7.80;;
60430;SDS011;46285;45.122;20.726;2022-07-29T10:01:03;24.02;;;9.05;;
60430;SDS011;46285;45.122;20.726;2022-07-29T10:03:29;11.52;;;8.30;;
60430;SDS011;46285;45.122;20.726;2022-07-29T10:06:09;14.73;;;7.88;;
60430;SDS011;46285;45.122;20.726;2022-07-29T10:08:35;9.57;;;7.93;;
60430;SDS011;46285;45.122;20.726;2022-07-29T10:11:15;12.15;;;8.95;;
60430;SDS011;46285;45.122;20.726;2022-07-29T10:13:42;12.98;;;8.38;;
60430;SDS011;46285;45.122;20.726;2022-07-29T10:16:08;14.35;;;8.57;;
60430;SDS011;46285;45.122;20.726;2022-07-29T10:18:35;14.38;;;8.60;;
60430;SDS011;46285;45.122;20.726;2022-07-29T10:21:03;12.80;;;9.63;;
60430;SDS011;46285;45.122;20.726;2022-07-29T10:23:29;10.73;;;8.75;;
60430;SDS011;46285;45.122;20.726;2022-07-29T10:25:56;11.10;;;8.18;;
60430;SDS011;46285;45.122;20.726;2022-07-29T10:28:22;13.88;;;9.10;;
60430;SDS011;46285;45.122;20.726;2022-07-29T10:30:50;11.35;;;7.90;;
60430;SDS011;46285;45.122;20.726;2022-07-29T10:35:44;11.52;;;9.07;;
60430;SDS011;46285;45.122;20.726;2022-07-29T10:38:29;13.18;;;8.80;;
60430;SDS011;46285;45.122;20.726;2022-07-29T10:41:03;12.45;;;9.00;;
60430;SDS011;46285;45.122;20.726;2022-07-29T10:43:51;13.30;;;8.80;;
60430;SDS011;46285;45.122;20.726;2022-07-29T10:46:18;12.38;;;8.75;;
60430;SDS011;46285;45.122;20.726;2022-07-29T10:54:18;12.68;;;8.85;;
60430;SDS011;46285;45.122;20.726;2022-07-29T10:56:45;13.00;;;9.77;;
60430;SDS011;46285;45.122;20.726;2022-07-29T11:01:47;12.55;;;9.25;;
60430;SDS011;46285;45.122;20.726;2022-07-29T11:04:14;12.50;;;8.88;;
60430;SDS011;46285;45.122;20.726;2022-07-29T11:09:25;10.82;;;9.70;;
60430;SDS011;46285;45.122;20.726;2022-07-29T11:11:52;14.10;;;10.35;;
60430;SDS011;46285;45.122;20.726;2022-07-29T11:14:20;16.15;;;9.48;;
60430;SDS011;46285;45.122;20.726;2022-07-29T11:17:04;14.90;;;8.75;;
60430;SDS011;46285;45.122;20.726;2022-07-29T11:19:33;15.30;;;9.60;;
60430;SDS011;46285;45.122;20.726;2022-07-29T11:21:59;13.52;;;9.55;;
60430;SDS011;46285;45.122;20.726;2022-07-29T11:24:26;13.23;;;9.57;;
60430;SDS011;46285;45.122;20.726;2022-07-29T11:29:48;13.65;;;8.98;;
60430;SDS011;46285;45.122;20.726;2022-07-29T11:32:15;14.15;;;10.05;;
60430;SDS011;46285;45.122;20.726;2022-07-29T11:34:43;14.55;;;9.45;;
60430;SDS011;46285;45.122;20.726;2022-07-29T11:39:42;12.30;;;8.50;;
60430;SDS011;46285;45.122;20.726;2022-07-29T11:45:00;11.60;;;10.07;;
60430;SDS011;46285;45.122;20.726;2022-07-29T11:47:29;12.23;;;10.25;;
60430;SDS011;46285;45.122;20.726;2022-07-29T11:49:56;9.95;;;8.93;;
60430;SDS011;46285;45.122;20.726;2022-07-29T11:52:22;11.23;;;9.73;;
60430;SDS011;46285;45.122;20.726;2022-07-29T11:54:50;14.52;;;9.32;;
60430;SDS011;46285;45.122;20.726;2022-07-29T11:57:17;12.95;;;9.18;;
60430;SDS011;46285;45.122;20.726;2022-07-29T11:59:44;14.95;;;10.50;;
60430;SDS011;46285;45.122;20.726;2022-07-29T12:02:10;13.43;;;9.40;;
60430;SDS011;46285;45.122;20.726;2022-07-29T12:04:53;13.10;;;10.10;;
60430;SDS011;46285;45.122;20.726;2022-07-29T12:07:29;11.05;;;9.70;;
60430;SDS011;46285;45.122;20.726;2022-07-29T12:09:57;11.68;;;10.05;;
60430;SDS011;46285;45.122;20.726;2022-07-29T12:12:25;11.30;;;10.05;;
60430;SDS011;46285;45.122;20.726;2022-07-29T12:14:51;12.68;;;9.30;;
60430;SDS011;46285;45.122;20.726;2022-07-29T12:20:36;13.27;;;9.95;;
60430;SDS011;46285;45.122;20.726;2022-07-29T12:23:04;14.80;;;9.25;;
60430;SDS011;46285;45.122;20.726;2022-07-29T12:25:32;10.05;;;9.05;;
60430;SDS011;46285;45.122;20.726;2022-07-29T12:28:03;15.23;;;9.82;;
60430;SDS011;46285;45.122;20.726;2022-07-29T12:30:37;10.40;;;8.65;;
60430;SDS011;46285;45.122;20.726;2022-07-29T12:36:00;14.45;;;9.80;;
60430;SDS011;46285;45.122;20.726;2022-07-29T12:38:27;14.23;;;9.15;;
60430;SDS011;46285;45.122;20.726;2022-07-29T12:40:54;10.43;;;8.55;;
60430;SDS011;46285;45.122;20.726;2022-07-29T12:43:21;14.60;;;8.88;;
60430;SDS011;46285;45.122;20.726;2022-07-29T12:45:49;9.80;;;8.38;;
60430;SDS011;46285;45.122;20.726;2022-07-29T12:48:16;14.18;;;8.13;;
60430;SDS011;46285;45.122;20.726;2022-07-29T12:50:58;11.18;;;8.63;;
60430;SDS011;46285;45.122;20.726;2022-07-29T12:53:25;11.10;;;8.82;;
60430;SDS011;46285;45.122;20.726;2022-07-29T12:55:52;12.13;;;8.52;;
60430;SDS011;46285;45.122;20.726;2022-07-29T12:58:29;10.70;;;7.90;;
60430;SDS011;46285;45.122;20.726;2022-07-29T13:03:28;11.65;;;9.85;;
60430;SDS011;46285;45.122;20.726;2022-07-29T13:05:54;15.32;;;8.95;;
60430;SDS011;46285;45.122;20.726;2022-07-29T13:08:20;10.13;;;8.45;;
60430;SDS011;46285;45.122;20.726;2022-07-29T13:10:46;8.95;;;7.88;;
60430;SDS011;46285;45.122;20.726;2022-07-29T13:13:14;9.73;;;8.32;;
60430;SDS011;46285;45.122;20.726;2022-07-29T13:15:43;10.88;;;8.63;;
60430;SDS011;46285;45.122;20.726;2022-07-29T13:24:27;11.55;;;8.75;;
60430;SDS011;46285;45.122;20.726;2022-07-29T13:27:01;11.48;;;8.43;;
60430;SDS011;46285;45.122;20.726;2022-07-29T13:35:37;10.30;;;8.07;;
60430;SDS011;46285;45.122;20.726;2022-07-29T13:38:04;9.75;;;8.38;;
60430;SDS011;46285;45.122;20.726;2022-07-29T13:40:30;9.88;;;7.80;;
60430;SDS011;46285;45.122;20.726;2022-07-29T13:42:56;10.27;;;9.10;;
60430;SDS011;46285;45.122;20.726;2022-07-29T13:45:23;9.95;;;8.85;;
60430;SDS011;46285;45.122;20.726;2022-07-29T13:47:49;10.52;;;8.23;;
60430;SDS011;46285;45.122;20.726;2022-07-29T13:50:19;10.32;;;8.75;;
60430;SDS011;46285;45.122;20.726;2022-07-29T13:52:45;9.30;;;8.27;;
60430;SDS011;46285;45.122;20.726;2022-07-29T13:55:13;12.57;;;8.48;;
60430;SDS011;46285;45.122;20.726;2022-07-29T13:57:39;11.35;;;9.15;;
60430;SDS011;46285;45.122;20.726;2022-07-29T14:00:05;10.63;;;8.63;;
60430;SDS011;46285;45.122;20.726;2022-07-29T14:02:32;10.10;;;7.82;;
60430;SDS011;46285;45.122;20.726;2022-07-29T14:04:58;9.63;;;8.63;;
60430;SDS011;46285;45.122;20.726;2022-07-29T14:07:25;12.38;;;8.43;;
60430;SDS011;46285;45.122;20.726;2022-07-29T14:09:51;9.75;;;8.15;;
60430;SDS011;46285;45.122;20.726;2022-07-29T14:12:20;10.60;;;7.78;;
60430;SDS011;46285;45.122;20.726;2022-07-29T14:14:47;9.15;;;7.45;;
60430;SDS011;46285;45.122;20.726;2022-07-29T14:17:14;12.10;;;8.88;;
60430;SDS011;46285;45.122;20.726;2022-07-29T14:22:06;9.55;;;8.52;;
60430;SDS011;46285;45.122;20.726;2022-07-29T14:24:33;9.48;;;8.02;;
60430;SDS011;46285;45.122;20.726;2022-07-29T14:27:00;10.30;;;8.60;;
60430;SDS011;46285;45.122;20.726;2022-07-29T14:29:26;9.93;;;7.68;;
60430;SDS011;46285;45.122;20.726;2022-07-29T14:31:52;11.18;;;8.18;;
60430;SDS011;46285;45.122;20.726;2022-07-29T14:34:18;10.75;;;8.13;;
60430;SDS011;46285;45.122;20.726;2022-07-29T14:36:44;9.77;;;8.20;;
60430;SDS011;46285;45.122;20.726;2022-07-29T14:39:11;10.73;;;8.35;;
60430;SDS011;46285;45.122;20.726;2022-07-29T14:41:37;10.75;;;8.70;;
60430;SDS011;46285;45.122;20.726;2022-07-29T14:44:03;18.42;;;9.23;;
60430;SDS011;46285;45.122;20.726;2022-07-29T14:46:33;9.38;;;7.93;;
60430;SDS011;46285;45.122;20.726;2022-07-29T14:49:06;10.20;;;8.02;;
60430;SDS011;46285;45.122;20.726;2022-07-29T14:51:32;15.60;;;8.68;;
60430;SDS011;46285;45.122;20.726;2022-07-29T14:53:58;8.75;;;7.63;;
60430;SDS011;46285;45.122;20.726;2022-07-29T14:56:25;9.70;;;7.72;;
60430;SDS011;46285;45.122;20.726;2022-07-29T14:58:54;10.23;;;7.80;;
60430;SDS011;46285;45.122;20.726;2022-07-29T15:01:20;14.43;;;8.93;;
60430;SDS011;46285;45.122;20.726;2022-07-29T15:03:47;8.88;;;7.97;;
60430;SDS011;46285;45.122;20.726;2022-07-29T15:06:13;9.13;;;7.05;;
60430;SDS011;46285;45.122;20.726;2022-07-29T15:08:39;9.85;;;7.22;;
60430;SDS011;46285;45.122;20.726;2022-07-29T15:11:05;8.80;;;7.90;;
60430;SDS011;46285;45.122;20.726;2022-07-29T15:13:32;11.18;;;8.13;;
60430;SDS011;46285;45.122;20.726;2022-07-29T15:15:58;10.95;;;8.23;;
60430;SDS011;46285;45.122;20.726;2022-07-29T15:18:24;9.82;;;7.80;;
60430;SDS011;46285;45.122;20.726;2022-07-29T15:20:51;8.80;;;6.68;;
60430;SDS011;46285;45.122;20.726;2022-07-29T15:23:17;9.57;;;8.57;;
60430;SDS011;46285;45.122;20.726;2022-07-29T15:25:43;13.25;;;7.90;;
60430;SDS011;46285;45.122;20.726;2022-07-29T15:28:09;12.93;;;7.65;;
60430;SDS011;46285;45.122;20.726;2022-07-29T15:30:35;10.18;;;8.43;;
60430;SDS011;46285;45.122;20.726;2022-07-29T15:33:06;10.15;;;7.50;;
60430;SDS011;46285;45.122;20.726;2022-07-29T15:35:33;10.05;;;8.13;;
60430;SDS011;46285;45.122;20.726;2022-07-29T15:37:59;10.65;;;8.98;;
60430;SDS011;46285;45.122;20.726;2022-07-29T15:40:26;13.05;;;8.32;;
60430;SDS011;46285;45.122;20.726;2022-07-29T15:42:52;10.35;;;8.32;;
60430;SDS011;46285;45.122;20.726;2022-07-29T15:45:18;11.05;;;7.72;;
60430;SDS011;46285;45.122;20.726;2022-07-29T15:47:44;9.88;;;7.28;;
60430;SDS011;46285;45.122;20.726;2022-07-29T15:50:10;10.73;;;8.27;;
60430;SDS011;46285;45.122;20.726;2022-07-29T15:52:41;12.20;;;8.50;;